Time;durP1;ratioP1;P1;durP2;ratioP2;P2;SDS_P1;SDS_P2;PMS_P1;PMS_P2;Temp;Humidity;BMP_temperature;BMP_pressure;BME280_temperature;BME280_humidity;BME280_pressure;Samples;Min_cycle;Max_cycle;Signal;HPM_P1;HPM_P2
2021/11/18 00:01:41;;;;;;;7.20;6.20;;;;;;;6.24;99.09;97803.31;5092371;28;20406;-65
2021/11/18 00:04:07;;;;;;;6.70;5.97;;;;;;;6.24;99.15;97800.72;5089450;28;20410;-64
2021/11/18 00:06:32;;;;;;;6.50;5.73;;;;;;;6.09;99.57;97799.84;5091402;28;20822;-64
2021/11/18 00:08:58;;;;;;;7.33;6.00;;;;;;;6.27;98.62;97805.56;5090503;28;20429;-65
2021/11/18 00:11:23;;;;;;;7.07;6.10;;;;;;;6.04;99.63;97795.16;5091155;28;20476;-65
2021/11/18 00:13:53;;;;;;;7.17;6.10;;;;;;;6.16;99.44;97795.56;5108377;28;20416;-65
2021/11/18 00:16:19;;;;;;;7.03;6.33;;;;;;;6.31;98.64;97787.78;5092777;28;20451;-64
2021/11/18 00:18:45;;;;;;;8.38;6.57;;;;;;;6.32;98.79;97802.44;5113933;28;20392;-64
2021/11/18 00:21:21;;;;;;;7.97;6.90;;;;;;;6.25;98.49;97794.50;5093052;28;20425;-65
2021/11/18 00:23:49;;;;;;;8.52;6.97;;;;;;;6.08;99.80;97793.00;5102356;28;20482;-64
2021/11/18 00:26:16;;;;;;;9.38;7.10;;;;;;;6.19;100.00;97787.41;5111712;28;20873;-65
2021/11/18 00:28:41;;;;;;;7.68;6.88;;;;;;;6.15;99.51;97789.53;5112768;28;20393;-65
2021/11/18 00:31:08;;;;;;;8.25;7.05;;;;;;;6.28;98.68;97795.97;5114048;28;20404;-65
2021/11/18 00:33:35;;;;;;;8.77;7.38;;;;;;;6.26;98.42;97803.94;5113740;28;20446;-65
2021/11/18 00:36:00;;;;;;;9.97;7.33;;;;;;;5.95;100.00;97809.22;5098820;28;20420;-65
2021/11/18 00:38:26;;;;;;;8.97;7.63;;;;;;;6.19;99.54;97793.41;5106334;28;20857;-64
2021/11/18 00:40:54;;;;;;;8.00;7.17;;;;;;;6.12;100.00;97792.50;5112827;28;20414;-64
2021/11/18 00:43:21;;;;;;;8.35;7.20;;;;;;;6.17;100.00;97792.78;5092761;28;20404;-65
2021/11/18 00:45:48;;;;;;;8.77;7.32;;;;;;;6.32;99.63;97790.22;5094010;28;20463;-65
2021/11/18 00:48:13;;;;;;;8.10;7.30;;;;;;;6.35;99.60;97794.28;5103869;28;20396;-65
2021/11/18 00:51:00;;;;;;;8.75;7.80;;;;;;;6.21;99.99;97788.84;5113757;28;20445;-65
2021/11/18 00:53:26;;;;;;;8.65;7.68;;;;;;;6.19;100.00;97792.59;5110905;28;20401;-65
2021/11/18 00:55:52;;;;;;;9.68;8.00;;;;;;;6.16;100.00;97791.16;5092022;28;20816;-65
2021/11/18 00:58:18;;;;;;;9.10;7.93;;;;;;;6.18;100.00;97799.63;5093462;28;20390;-65
2021/11/18 01:00:46;;;;;;;8.75;7.68;;;;;;;6.04;100.00;97794.34;5093424;28;20751;-64
2021/11/18 01:03:13;;;;;;;9.77;7.85;;;;;;;6.18;100.00;97793.59;5093765;28;20402;-65
2021/11/18 01:05:42;;;;;;;8.35;7.30;;;;;;;6.24;100.00;97793.69;5110559;28;20410;-65
2021/11/18 01:08:08;;;;;;;8.70;7.50;;;;;;;6.29;100.00;97795.00;5092064;28;20467;-64
2021/11/18 01:10:46;;;;;;;9.27;7.55;;;;;;;6.39;99.33;97798.97;5093680;28;20425;-65
2021/11/18 01:13:12;;;;;;;8.23;7.30;;;;;;;6.28;99.98;97798.56;5093562;28;20385;-65
2021/11/18 01:15:40;;;;;;;8.07;7.03;;;;;;;6.31;99.86;97796.41;5096076;28;20414;-64
2021/11/18 01:18:06;;;;;;;11.30;6.85;;;;;;;6.36;99.55;97801.09;5105985;28;20414;-64
2021/11/18 01:20:34;;;;;;;9.77;6.00;;;;;;;6.29;99.32;97801.00;5104575;28;20400;-64
2021/11/18 01:23:01;;;;;;;7.65;6.45;;;;;;;6.37;98.89;97803.53;5113590;28;20465;-65
2021/11/18 01:25:28;;;;;;;6.87;6.17;;;;;;;6.19;100.00;97808.22;5111063;28;20388;-65
2021/11/18 01:27:54;;;;;;;6.70;5.90;;;;;;;6.25;100.00;97797.94;5092950;28;20378;-64
2021/11/18 01:30:24;;;;;;;6.27;5.67;;;;;;;6.08;100.00;97799.03;5093447;28;20397;-65
2021/11/18 01:32:51;;;;;;;7.97;6.28;;;;;;;6.12;100.00;97805.53;5093501;28;20398;-65
2021/11/18 01:35:17;;;;;;;6.90;6.18;;;;;;;6.17;100.00;97802.41;5109458;28;20480;-65
2021/11/18 01:37:42;;;;;;;7.37;6.27;;;;;;;6.27;99.86;97802.97;5093269;28;20386;-65
2021/11/18 01:40:11;;;;;;;6.70;6.00;;;;;;;6.21;100.00;97809.69;5092695;28;20413;-65
2021/11/18 01:42:37;;;;;;;6.22;5.55;;;;;;;6.32;99.76;97808.47;5104277;28;20886;-64
2021/11/18 01:45:04;;;;;;;6.40;5.50;;;;;;;6.34;99.37;97808.28;5113377;28;20389;-65
2021/11/18 01:47:29;;;;;;;6.65;5.60;;;;;;;6.38;99.36;97807.75;5112582;28;20853;-65
2021/11/18 01:49:55;;;;;;;7.15;5.88;;;;;;;6.37;99.09;97813.13;5113260;28;20388;-64
2021/11/18 01:52:25;;;;;;;6.50;5.83;;;;;;;6.35;99.05;97815.94;5104088;28;20382;-67
2021/11/18 01:54:51;;;;;;;6.18;5.57;;;;;;;6.43;98.16;97808.03;5092512;28;20421;-66
2021/11/18 01:57:24;;;;;;;6.10;5.47;;;;;;;6.17;99.24;97811.00;5094240;28;20416;-65
2021/11/18 01:59:51;;;;;;;5.95;5.35;;;;;;;6.31;99.75;97817.25;5109696;28;20412;-65
2021/11/18 02:02:18;;;;;;;6.13;5.43;;;;;;;6.27;99.84;97815.97;5092688;28;20390;-65
2021/11/18 02:04:56;;;;;;;7.25;5.50;;;;;;;6.24;99.91;97817.13;5092264;28;20501;-68
2021/11/18 02:07:22;;;;;;;6.43;5.32;;;;;;;6.10;100.00;97822.28;5103034;28;20863;-64
2021/11/18 02:09:50;;;;;;;7.40;6.00;;;;;;;6.13;100.00;97820.13;5092401;28;20477;-64
2021/11/18 02:12:26;;;;;;;6.35;5.43;;;;;;;6.09;100.00;97810.25;5093498;28;20439;-65
2021/11/18 02:14:53;;;;;;;6.03;5.43;;;;;;;6.17;100.00;97811.00;5106244;28;20880;-65
2021/11/18 02:17:22;;;;;;;6.25;5.63;;;;;;;6.27;99.54;97813.38;5105412;28;20455;-65
2021/11/18 02:19:56;;;;;;;6.15;5.25;;;;;;;6.26;100.00;97812.56;5096524;28;20380;-65
2021/11/18 02:22:23;;;;;;;6.43;5.60;;;;;;;6.21;100.00;97812.28;5094537;28;20388;-65
2021/11/18 02:24:53;;;;;;;8.27;5.35;;;;;;;6.29;99.34;97813.22;5094390;28;20886;-65
2021/11/18 02:27:21;;;;;;;5.53;4.93;;;;;;;6.41;98.97;97822.25;5102415;28;20908;-65
2021/11/18 02:29:50;;;;;;;5.83;5.20;;;;;;;6.30;99.05;97818.22;5092403;28;20394;-65
2021/11/18 02:32:20;;;;;;;7.20;5.38;;;;;;;6.14;100.00;97816.56;5092140;28;20439;-68
2021/11/18 02:34:55;;;;;;;5.53;5.03;;;;;;;6.32;99.50;97825.88;5091676;28;20382;-65
2021/11/18 02:37:21;;;;;;;6.55;5.40;;;;;;;6.41;98.85;97836.03;5094085;28;20415;-65
2021/11/18 02:39:47;;;;;;;5.88;5.13;;;;;;;6.49;98.59;97838.59;5111349;28;20389;-65
2021/11/18 02:42:14;;;;;;;5.93;5.32;;;;;;;6.55;98.12;97850.94;5098481;28;20390;-65
2021/11/18 02:44:40;;;;;;;6.07;5.05;;;;;;;6.44;98.07;97848.72;5108369;28;20392;-65
2021/11/18 02:47:12;;;;;;;5.90;5.20;;;;;;;6.39;99.23;97852.84;5106408;28;20416;-65
2021/11/18 02:49:45;;;;;;;5.30;4.80;;;;;;;6.52;98.96;97858.28;5092147;28;20398;-65
2021/11/18 02:52:14;;;;;;;6.07;5.47;;;;;;;6.50;98.71;97852.44;5092085;28;20402;-65
2021/11/18 02:54:40;;;;;;;6.25;5.30;;;;;;;6.62;97.76;97849.25;5090506;28;20485;-65
2021/11/18 02:57:07;;;;;;;6.05;5.18;;;;;;;6.39;99.47;97848.44;5097423;28;20430;-67
2021/11/18 02:59:36;;;;;;;5.63;5.13;;;;;;;6.35;99.46;97841.16;5111903;28;20390;-65
2021/11/18 03:02:02;;;;;;;5.85;5.10;;;;;;;6.53;98.89;97850.28;5110203;28;20565;-65
2021/11/18 03:04:27;;;;;;;5.77;5.17;;;;;;;6.30;98.78;97852.06;5111825;28;20714;-65
2021/11/18 03:06:53;;;;;;;6.10;5.50;;;;;;;6.41;99.33;97850.88;5111401;28;20399;-65
2021/11/18 03:09:18;;;;;;;6.30;5.65;;;;;;;6.55;98.52;97847.50;5093085;28;20413;-67
2021/11/18 03:11:44;;;;;;;7.13;5.63;;;;;;;6.59;98.36;97853.97;5096915;28;20380;-66
2021/11/18 03:14:09;;;;;;;6.27;5.67;;;;;;;6.59;98.37;97859.19;5109510;28;20419;-65
2021/11/18 03:16:35;;;;;;;6.13;5.60;;;;;;;6.52;99.16;97856.47;5111497;28;20384;-65
2021/11/18 03:19:00;;;;;;;6.53;5.73;;;;;;;6.62;98.63;97858.84;5093566;28;20464;-65
2021/11/18 03:21:27;;;;;;;6.80;5.43;;;;;;;6.56;98.87;97851.75;5109388;28;20432;-66
2021/11/18 03:23:55;;;;;;;6.20;5.60;;;;;;;6.54;99.15;97851.09;5107457;28;20425;-68
2021/11/18 03:26:23;;;;;;;6.37;5.77;;;;;;;6.45;99.84;97850.34;5091235;28;20919;-68
2021/11/18 03:28:49;;;;;;;6.55;5.80;;;;;;;6.52;99.70;97847.88;5091457;28;20393;-65
2021/11/18 03:31:15;;;;;;;7.28;6.10;;;;;;;6.52;99.53;97847.88;5093518;28;20779;-65
2021/11/18 03:33:46;;;;;;;6.70;6.00;;;;;;;6.70;98.50;97858.78;5108670;28;20412;-65
2021/11/18 03:36:13;;;;;;;6.80;5.90;;;;;;;6.62;98.75;97854.47;5091566;28;20405;-65
2021/11/18 03:38:40;;;;;;;6.57;5.93;;;;;;;6.64;98.88;97856.88;5091416;28;20417;-65
2021/11/18 03:41:07;;;;;;;6.85;6.15;;;;;;;6.51;99.83;97849.66;5103205;28;20408;-65
2021/11/18 03:43:36;;;;;;;6.90;6.20;;;;;;;6.47;100.00;97868.38;5095036;28;20386;-65
2021/11/18 03:46:01;;;;;;;7.65;6.75;;;;;;;6.66;99.96;97860.13;5091350;28;20393;-68
2021/11/18 03:48:32;;;;;;;8.32;6.78;;;;;;;6.59;99.79;97862.59;5089881;28;20902;-65
2021/11/18 03:51:01;;;;;;;7.70;6.60;;;;;;;6.66;99.73;97863.53;5091710;28;20386;-65
2021/11/18 03:53:27;;;;;;;7.57;6.38;;;;;;;6.65;99.73;97853.28;5095418;28;20435;-65
2021/11/18 03:55:53;;;;;;;8.05;6.70;;;;;;;6.54;100.00;97857.13;5111942;28;20468;-65
2021/11/18 03:58:19;;;;;;;8.15;7.03;;;;;;;6.63;99.61;97865.69;5093651;28;20465;-65
2021/11/18 04:00:45;;;;;;;8.05;6.75;;;;;;;6.62;99.78;97864.88;5102164;28;20503;-65
2021/11/18 04:03:12;;;;;;;8.15;7.05;;;;;;;6.64;99.88;97870.69;5114848;28;20538;-65
2021/11/18 04:05:39;;;;;;;7.87;7.07;;;;;;;6.69;99.03;97876.19;5114334;28;20830;-66
2021/11/18 04:08:06;;;;;;;9.07;7.00;;;;;;;6.77;98.10;97879.72;5115063;28;20385;-65
2021/11/18 04:10:34;;;;;;;8.35;7.25;;;;;;;6.67;98.99;97879.97;5107669;28;20397;-65
2021/11/18 04:13:03;;;;;;;8.75;7.55;;;;;;;6.60;99.55;97872.03;5094759;28;20486;-65
2021/11/18 04:15:30;;;;;;;8.63;7.80;;;;;;;6.71;99.03;97875.22;5095019;28;20390;-65
2021/11/18 04:17:56;;;;;;;9.93;8.10;;;;;;;6.43;100.00;97888.78;5113461;28;20388;-65
2021/11/18 04:20:23;;;;;;;9.95;7.88;;;;;;;6.52;100.00;97884.34;5109215;28;20406;-65
2021/11/18 04:22:51;;;;;;;11.93;8.07;;;;;;;6.62;99.88;97875.28;5095080;28;20466;-65
2021/11/18 04:25:20;;;;;;;9.52;8.00;;;;;;;6.48;100.00;97886.44;5094305;28;20378;-65
2021/11/18 04:27:45;;;;;;;11.02;8.15;;;;;;;6.47;100.00;97889.22;5110656;28;20381;-65
2021/11/18 04:30:16;;;;;;;10.77;9.15;;;;;;;6.79;98.63;97896.00;5093061;28;20417;-65
2021/11/18 04:32:42;;;;;;;12.85;9.70;;;;;;;6.53;100.00;97897.16;5094437;28;20404;-65
2021/11/18 04:35:08;;;;;;;11.33;9.57;;;;;;;6.49;100.00;97889.88;5093563;28;20390;-65
2021/11/18 04:37:34;;;;;;;10.95;9.32;;;;;;;6.44;100.00;97900.81;5094428;28;20394;-65
2021/11/18 04:39:59;;;;;;;10.47;8.90;;;;;;;6.46;100.00;97905.84;5096027;28;20413;-65
2021/11/18 04:42:25;;;;;;;10.87;8.80;;;;;;;6.33;100.00;97905.59;5109420;28;20386;-65
2021/11/18 04:44:51;;;;;;;10.38;9.20;;;;;;;6.53;100.00;97909.38;5094599;28;20720;-65
2021/11/18 04:47:16;;;;;;;12.13;9.35;;;;;;;6.58;100.00;97912.25;5095212;28;20386;-65
2021/11/18 04:49:44;;;;;;;10.40;9.20;;;;;;;6.38;100.00;97917.13;5094601;28;20415;-65
2021/11/18 04:52:13;;;;;;;12.03;9.43;;;;;;;6.67;100.00;97926.88;5094572;28;20386;-65
2021/11/18 04:54:39;;;;;;;10.93;9.47;;;;;;;6.72;99.99;97924.56;5093720;28;20728;-66
2021/11/18 04:57:06;;;;;;;11.30;9.20;;;;;;;6.67;100.00;97919.88;5103248;28;20407;-65
2021/11/18 04:59:32;;;;;;;10.88;9.25;;;;;;;6.60;100.00;97921.53;5114306;28;20471;-65
2021/11/18 05:01:58;;;;;;;11.20;9.20;;;;;;;6.75;100.00;97912.94;5113160;28;20415;-65
2021/11/18 05:04:24;;;;;;;10.70;8.95;;;;;;;6.74;99.81;97909.56;5093363;28;20492;-65
2021/11/18 05:06:49;;;;;;;10.80;8.83;;;;;;;6.52;100.00;97916.38;5095222;28;20914;-65
2021/11/18 05:09:15;;;;;;;10.57;9.07;;;;;;;6.51;100.00;97912.16;5092394;28;20405;-65
2021/11/18 05:11:42;;;;;;;12.70;8.90;;;;;;;6.65;100.00;97924.44;5093442;28;20519;-65
2021/11/18 05:14:08;;;;;;;10.95;8.80;;;;;;;6.60;100.00;97918.94;5095172;28;20400;-65
2021/11/18 05:16:34;;;;;;;10.85;8.93;;;;;;;6.52;100.00;97918.19;5091642;28;20388;-65
2021/11/18 05:19:00;;;;;;;10.40;8.90;;;;;;;6.66;100.00;97925.25;5092296;28;20386;-65
2021/11/18 05:21:28;;;;;;;11.18;9.60;;;;;;;6.61;100.00;97930.97;5093523;28;20406;-67
2021/11/18 05:23:56;;;;;;;11.20;9.23;;;;;;;6.55;100.00;97933.47;5108428;28;20385;-64
2021/11/18 05:26:22;;;;;;;11.43;9.33;;;;;;;6.74;100.00;97937.41;5106524;28;20405;-64
2021/11/18 05:28:48;;;;;;;13.07;9.65;;;;;;;6.77;100.00;97939.66;5075277;28;20407;-64
2021/11/18 05:31:15;;;;;;;11.23;8.80;;;;;;;6.60;100.00;97944.97;5093364;28;20425;-64
2021/11/18 05:33:41;;;;;;;11.45;9.27;;;;;;;6.94;99.68;97939.38;5102194;28;20400;-64
2021/11/18 05:36:07;;;;;;;11.95;9.80;;;;;;;6.99;99.13;97936.22;5113295;28;20479;-65
2021/11/18 05:38:33;;;;;;;13.23;9.60;;;;;;;6.91;99.81;97939.69;5111310;28;20428;-65
2021/11/18 05:40:59;;;;;;;12.10;10.02;;;;;;;7.03;98.95;97938.31;5106123;28;20771;-64
2021/11/18 05:43:27;;;;;;;13.50;10.50;;;;;;;7.06;99.05;97937.16;5101279;28;20414;-64
2021/11/18 05:45:52;;;;;;;13.35;10.15;;;;;;;6.86;100.00;97934.19;5091747;28;20390;-64
2021/11/18 05:48:19;;;;;;;14.83;10.87;;;;;;;6.68;100.00;97951.94;5092786;28;20382;-64
2021/11/18 05:50:56;;;;;;;11.88;10.00;;;;;;;6.71;100.00;97941.16;5092941;28;20386;-65
2021/11/18 05:53:25;;;;;;;12.63;10.33;;;;;;;6.70;100.00;97942.13;5098785;28;20395;-64
2021/11/18 05:55:52;;;;;;;13.13;10.20;;;;;;;6.78;100.00;97943.88;5112018;28;20487;-64
2021/11/18 05:58:19;;;;;;;12.13;10.07;;;;;;;6.75;100.00;97941.63;5112321;28;20964;-64
2021/11/18 06:00:44;;;;;;;15.85;10.35;;;;;;;6.79;100.00;97956.75;5104528;28;20874;-64
2021/11/18 06:03:10;;;;;;;15.00;10.52;;;;;;;6.82;100.00;97956.38;5093957;28;20479;-64
2021/11/18 06:05:35;;;;;;;12.27;9.93;;;;;;;6.69;100.00;97956.94;5112077;28;20400;-64
2021/11/18 06:08:01;;;;;;;11.95;9.77;;;;;;;6.75;100.00;97952.03;5112587;28;20468;-64
2021/11/18 06:10:28;;;;;;;13.30;9.77;;;;;;;6.79;100.00;97963.75;5112380;28;20419;-64
2021/11/18 06:12:54;;;;;;;11.88;9.68;;;;;;;6.77;100.00;97961.31;5100629;28;20394;-65
2021/11/18 06:15:21;;;;;;;13.25;9.82;;;;;;;6.70;100.00;97962.97;5092499;28;20715;-65
2021/11/18 06:17:46;;;;;;;11.85;9.65;;;;;;;6.77;100.00;97966.53;5091661;28;20896;-68
2021/11/18 06:20:14;;;;;;;13.90;10.27;;;;;;;6.64;100.00;97964.47;5092097;28;20406;-67
2021/11/18 06:22:39;;;;;;;12.02;9.10;;;;;;;6.72;100.00;97968.84;5090866;28;20386;-65
2021/11/18 06:25:06;;;;;;;11.93;9.60;;;;;;;6.63;100.00;97968.06;5091957;28;20760;-65
2021/11/18 06:27:34;;;;;;;11.55;9.15;;;;;;;6.63;100.00;97959.47;5092325;28;20382;-64
2021/11/18 06:29:59;;;;;;;12.25;9.55;;;;;;;6.62;100.00;97956.03;5111725;28;20399;-65
2021/11/18 06:32:25;;;;;;;13.55;10.52;;;;;;;6.75;100.00;97958.06;5112200;28;20384;-65
2021/11/18 06:34:51;;;;;;;13.07;10.70;;;;;;;6.71;100.00;97956.78;5093535;28;20400;-65
2021/11/18 06:37:17;;;;;;;12.38;10.00;;;;;;;6.76;100.00;97964.91;5112238;28;20737;-66
2021/11/18 06:39:43;;;;;;;13.07;10.32;;;;;;;6.71;100.00;97972.41;5094433;28;20410;-64
2021/11/18 06:42:11;;;;;;;13.53;10.80;;;;;;;6.61;100.00;97977.03;5091950;28;21003;-64
2021/11/18 06:44:38;;;;;;;14.95;11.23;;;;;;;6.68;100.00;97975.38;5093348;28;20861;-64
2021/11/18 06:47:04;;;;;;;13.57;10.30;;;;;;;6.70;100.00;97978.59;5100962;28;20413;-67
2021/11/18 06:49:30;;;;;;;12.20;10.05;;;;;;;6.71;100.00;97985.44;5106624;28;20410;-65
2021/11/18 06:51:55;;;;;;;12.27;10.40;;;;;;;6.78;100.00;97993.38;5107737;28;20392;-66
2021/11/18 06:54:21;;;;;;;12.87;9.90;;;;;;;6.69;100.00;97987.41;5093313;28;20402;-66
2021/11/18 06:56:46;;;;;;;12.30;10.07;;;;;;;6.79;100.00;97985.41;5094782;28;20506;-67
2021/11/18 06:59:12;;;;;;;13.95;10.00;;;;;;;6.88;100.00;97988.75;5092370;28;20397;-66
2021/11/18 07:01:39;;;;;;;15.00;10.20;;;;;;;6.81;100.00;97990.41;5092732;28;20420;-66
2021/11/18 07:04:08;;;;;;;13.82;9.95;;;;;;;6.97;100.00;97992.91;5091603;28;20398;-66
2021/11/18 07:06:36;;;;;;;14.30;10.33;;;;;;;6.75;100.00;97994.53;5092333;28;20504;-69
2021/11/18 07:09:04;;;;;;;13.55;10.07;;;;;;;7.04;100.00;98009.50;5090898;28;20394;-66
2021/11/18 07:11:30;;;;;;;11.25;9.40;;;;;;;6.97;100.00;98013.75;5097795;28;20417;-67
2021/11/18 07:13:56;;;;;;;12.00;9.77;;;;;;;7.10;100.00;98014.81;5111391;28;20463;-66
2021/11/18 07:16:23;;;;;;;12.37;9.50;;;;;;;7.00;100.00;98016.84;5089646;28;20469;-66
2021/11/18 07:18:49;;;;;;;14.57;9.70;;;;;;;6.91;100.00;98027.53;5091341;28;20386;-67
2021/11/18 07:21:16;;;;;;;14.10;10.25;;;;;;;7.02;100.00;98024.50;5094269;28;20423;-67
2021/11/18 07:23:43;;;;;;;12.57;9.73;;;;;;;7.12;100.00;98021.66;5111304;28;20384;-66
2021/11/18 07:26:10;;;;;;;12.70;9.32;;;;;;;7.10;100.00;98016.63;5102305;28;20891;-66
2021/11/18 07:28:36;;;;;;;12.98;9.40;;;;;;;7.18;100.00;98023.59;5112562;28;20395;-66
2021/11/18 07:31:02;;;;;;;11.43;9.07;;;;;;;7.19;100.00;98022.59;5116470;28;20384;-65
2021/11/18 07:33:30;;;;;;;13.05;9.43;;;;;;;7.36;99.55;98027.50;5097535;28;20432;-65
2021/11/18 07:35:56;;;;;;;15.65;9.95;;;;;;;7.36;99.77;98030.09;5101913;28;20394;-66
2021/11/18 07:38:23;;;;;;;11.55;8.80;;;;;;;7.43;98.27;98028.41;5097598;28;20401;-66
2021/11/18 07:40:49;;;;;;;13.43;9.35;;;;;;;7.52;98.00;98037.78;5097650;28;20416;-66
2021/11/18 07:43:20;;;;;;;12.05;9.02;;;;;;;7.31;98.22;98042.03;5097799;28;20790;-66
2021/11/18 07:45:53;;;;;;;12.70;8.52;;;;;;;7.32;98.16;98049.69;5102774;28;20415;-66
2021/11/18 07:48:19;;;;;;;12.45;9.07;;;;;;;7.33;98.59;98053.13;5103502;28;20792;-67
2021/11/18 07:50:45;;;;;;;12.57;9.07;;;;;;;7.45;97.47;98049.13;5117728;28;20448;-66
2021/11/18 07:53:14;;;;;;;11.68;8.80;;;;;;;7.18;98.86;98057.47;5112245;28;20384;-68
2021/11/18 07:55:40;;;;;;;11.57;8.73;;;;;;;7.13;99.18;98051.97;5117469;28;20384;-67
2021/11/18 07:58:06;;;;;;;13.82;9.05;;;;;;;7.23;99.20;98063.78;5095818;28;20474;-66
2021/11/18 08:00:31;;;;;;;11.70;8.70;;;;;;;7.25;98.35;98061.00;5110538;28;20408;-66
2021/11/18 08:02:57;;;;;;;12.87;8.73;;;;;;;7.27;98.85;98059.03;5100711;28;20808;-65
2021/11/18 08:05:24;;;;;;;13.53;9.07;;;;;;;7.34;98.70;98063.38;5097429;28;20406;-65
2021/11/18 08:07:49;;;;;;;14.82;9.70;;;;;;;7.36;98.81;98066.59;5103550;28;20899;-65
2021/11/18 08:10:15;;;;;;;14.25;8.82;;;;;;;7.40;97.90;98059.25;5117401;28;20396;-65
2021/11/18 08:12:42;;;;;;;14.13;8.73;;;;;;;7.33;98.85;98066.16;5115723;28;20479;-65
2021/11/18 08:15:12;;;;;;;14.00;8.93;;;;;;;7.46;97.24;98059.38;5102535;28;20407;-65
2021/11/18 08:17:39;;;;;;;16.98;8.77;;;;;;;7.39;98.06;98055.84;5098878;28;20418;-68
2021/11/18 08:20:07;;;;;;;14.40;9.00;;;;;;;7.43;97.47;98064.94;5095919;28;20421;-67
2021/11/18 08:22:33;;;;;;;15.25;8.80;;;;;;;7.39;97.99;98061.06;5097442;28;20443;-66
2021/11/18 08:24:58;;;;;;;13.13;8.43;;;;;;;7.62;96.71;98052.41;5108143;28;20443;-65
2021/11/18 08:27:24;;;;;;;15.20;8.90;;;;;;;7.41;97.10;98063.50;5103296;28;20395;-66
2021/11/18 08:29:49;;;;;;;15.57;9.10;;;;;;;7.41;98.17;98061.69;5111679;28;20376;-66
2021/11/18 08:32:16;;;;;;;15.35;9.07;;;;;;;7.44;97.52;98063.13;5111897;28;20395;-65
2021/11/18 08:34:42;;;;;;;15.13;9.70;;;;;;;7.45;97.60;98057.75;5113661;28;20885;-65
2021/11/18 08:37:09;;;;;;;17.95;10.32;;;;;;;7.88;95.55;98051.00;5108997;28;20462;-67
2021/11/18 08:39:37;;;;;;;17.85;10.20;;;;;;;7.91;94.67;98066.28;5094648;28;20567;-66
2021/11/18 08:42:06;;;;;;;18.40;10.18;;;;;;;8.07;94.66;98062.75;5095233;28;20780;-67
2021/11/18 08:44:33;;;;;;;16.63;10.40;;;;;;;7.86;95.49;98063.41;5100731;28;20712;-67
2021/11/18 08:46:59;;;;;;;19.00;10.32;;;;;;;8.14;94.04;98070.66;5093847;28;20389;-67
2021/11/18 08:49:25;;;;;;;19.92;11.05;;;;;;;7.96;95.88;98071.00;5091964;28;20390;-66
2021/11/18 08:51:52;;;;;;;20.53;10.63;;;;;;;8.03;95.26;98071.91;5093717;28;20406;-66
2021/11/18 08:54:22;;;;;;;18.27;11.02;;;;;;;8.25;94.82;98075.41;5092299;28;20382;-66
2021/11/18 08:56:50;;;;;;;18.52;10.35;;;;;;;8.18;94.33;98067.53;5111688;28;20413;-66
2021/11/18 08:59:17;;;;;;;17.53;10.57;;;;;;;8.16;95.03;98076.50;5111601;28;20540;-67
2021/11/18 09:02:02;;;;;;;20.50;11.05;;;;;;;8.41;93.48;98075.31;5101875;28;20453;-66
2021/11/18 09:04:27;;;;;;;17.25;10.40;;;;;;;8.28;93.59;98073.28;5102005;28;20845;-66
2021/11/18 09:06:54;;;;;;;21.33;11.05;;;;;;;8.02;94.85;98082.53;5092656;28;20560;-67
2021/11/18 09:09:22;;;;;;;20.63;11.50;;;;;;;8.30;94.21;98078.38;5110335;28;20407;-67
2021/11/18 09:11:48;;;;;;;21.38;11.25;;;;;;;8.63;92.45;98089.25;5101221;28;20402;-67
2021/11/18 09:14:15;;;;;;;21.03;11.40;;;;;;;8.67;91.63;98086.09;5094716;28;20388;-66
2021/11/18 09:16:42;;;;;;;19.05;11.05;;;;;;;8.39;92.47;98085.09;5113463;28;20380;-66
2021/11/18 09:19:11;;;;;;;20.85;11.27;;;;;;;8.28;93.77;98096.78;5113227;28;20877;-66
2021/11/18 09:21:40;;;;;;;23.20;12.27;;;;;;;8.50;93.14;98091.69;5111880;28;20408;-66
2021/11/18 09:24:10;;;;;;;21.77;12.00;;;;;;;8.80;90.59;98093.28;5113253;28;20515;-67
2021/11/18 09:26:38;;;;;;;22.42;12.75;;;;;;;8.65;91.94;98090.66;5110754;28;20393;-66
2021/11/18 09:29:05;;;;;;;28.73;14.93;;;;;;;8.58;92.49;98094.22;5112699;28;20424;-66
2021/11/18 09:31:31;;;;;;;28.77;16.52;;;;;;;8.66;92.20;98091.47;5112417;28;20422;-66
2021/11/18 09:33:57;;;;;;;24.77;14.17;;;;;;;8.77;91.55;98096.25;5109577;28;20392;-66
2021/11/18 09:36:24;;;;;;;22.33;12.55;;;;;;;8.67;91.79;98090.50;5098110;28;20405;-66
2021/11/18 09:38:51;;;;;;;21.83;12.33;;;;;;;8.77;91.44;98089.22;5092758;28;20386;-67
2021/11/18 09:41:43;;;;;;;22.02;12.18;;;;;;;8.81;91.49;98094.06;5093748;28;20770;-68
2021/11/18 09:44:11;;;;;;;19.67;12.07;;;;;;;8.81;91.47;98092.25;5081770;28;20406;-67
2021/11/18 09:47:12;;;;;;;21.70;12.18;;;;;;;8.88;91.34;98098.38;5091651;28;20397;-66
2021/11/18 09:50:09;;;;;;;21.33;11.90;;;;;;;8.76;91.51;98094.63;5108636;28;20757;-67
2021/11/18 09:53:11;;;;;;;17.83;11.32;;;;;;;8.78;91.30;98100.50;5112447;28;20392;-66
2021/11/18 09:55:50;;;;;;;18.75;11.63;;;;;;;9.00;91.17;98090.88;5087220;28;20402;-66
2021/11/18 09:58:44;;;;;;;17.67;11.02;;;;;;;9.18;90.44;98089.50;5092569;28;20394;-67
2021/11/18 10:01:34;;;;;;;17.20;11.05;;;;;;;9.32;89.29;98095.66;5093128;28;20791;-65
2021/11/18 10:04:18;;;;;;;18.88;11.35;;;;;;;9.37;88.86;98100.31;5106525;28;20729;-65
2021/11/18 10:06:45;;;;;;;17.52;11.40;;;;;;;9.84;85.39;98095.34;5111881;28;20474;-65
2021/11/18 10:09:20;;;;;;;18.20;11.20;;;;;;;9.90;84.21;98084.09;5090089;28;20842;-65
2021/11/18 10:12:18;;;;;;;18.38;11.68;;;;;;;9.54;86.52;98086.00;5092916;28;20403;-65
2021/11/18 10:15:09;;;;;;;18.20;12.03;;;;;;;9.60;87.26;98087.88;5092172;28;20389;-64
2021/11/18 10:17:57;;;;;;;15.85;10.68;;;;;;;10.19;83.31;98090.19;5091680;28;20394;-65
2021/11/18 10:20:30;;;;;;;14.57;9.82;;;;;;;10.29;82.28;98085.41;5090882;28;20425;-65
2021/11/18 10:23:00;;;;;;;14.70;9.90;;;;;;;10.18;81.78;98091.16;5106734;28;20398;-65
2021/11/18 10:25:39;;;;;;;16.70;10.50;;;;;;;9.79;83.09;98089.84;5109913;28;20483;-65
2021/11/18 10:28:23;;;;;;;15.40;9.52;;;;;;;10.11;82.18;98092.91;5111883;28;20445;-64
2021/11/18 10:31:14;;;;;;;14.15;9.93;;;;;;;9.98;82.68;98088.38;5093665;28;20514;-66
2021/11/18 10:34:15;;;;;;;11.77;8.13;;;;;;;10.12;82.20;98082.25;5097478;28;20876;-66
2021/11/18 10:36:44;;;;;;;11.70;8.02;;;;;;;10.12;81.48;98081.44;5086760;28;20410;-66
2021/11/18 10:39:21;;;;;;;11.48;8.13;;;;;;;10.05;81.98;98078.75;5094111;28;20394;-66
2021/11/18 10:42:01;;;;;;;11.15;8.48;;;;;;;10.53;79.58;98081.50;5101624;28;20891;-65
2021/11/18 10:44:33;;;;;;;11.37;8.33;;;;;;;10.53;79.24;98074.47;5100569;28;20437;-67
2021/11/18 10:47:06;;;;;;;11.60;8.30;;;;;;;10.52;79.23;98074.66;5074596;28;20389;-64
2021/11/18 10:49:45;;;;;;;9.48;7.13;;;;;;;10.86;77.52;98071.16;5107393;28;20389;-64
2021/11/18 10:52:26;;;;;;;10.15;7.28;;;;;;;10.86;77.05;98066.72;5097887;28;20462;-64
2021/11/18 10:55:07;;;;;;;9.18;6.28;;;;;;;10.49;78.61;98065.34;5091248;28;20462;-64
2021/11/18 10:57:34;;;;;;;8.73;6.53;;;;;;;10.55;78.21;98069.00;5108379;28;20399;-64
2021/11/18 11:00:18;;;;;;;9.90;7.28;;;;;;;10.30;79.19;98053.78;5089015;28;20386;-64
2021/11/18 11:02:43;;;;;;;9.43;7.10;;;;;;;10.21;79.51;98046.22;5092180;28;20392;-65
2021/11/18 11:05:26;;;;;;;10.93;7.50;;;;;;;10.17;81.12;98043.19;5107305;28;20810;-65
2021/11/18 11:07:52;;;;;;;10.95;7.60;;;;;;;10.30;80.03;98047.72;5100088;28;20568;-64
2021/11/18 11:10:22;;;;;;;9.00;6.88;;;;;;;10.10;80.69;98044.94;5093308;28;20876;-65
2021/11/18 11:13:08;;;;;;;10.00;7.30;;;;;;;10.13;81.80;98054.22;5104285;28;20882;-67
2021/11/18 11:16:18;;;;;;;10.52;8.02;;;;;;;10.32;81.30;98056.19;5077934;28;20425;-66
2021/11/18 11:18:52;;;;;;;9.75;7.38;;;;;;;10.08;79.89;98056.63;5050865;28;20405;-68
2021/11/18 11:21:49;;;;;;;11.68;7.82;;;;;;;9.87;80.84;98060.91;5108512;28;20492;-71
2021/11/18 11:24:30;;;;;;;9.48;7.03;;;;;;;9.79;82.24;98052.38;5092742;28;20902;-66
2021/11/18 11:27:29;;;;;;;10.13;6.55;;;;;;;9.80;81.71;98052.19;5099133;28;20415;-67
2021/11/18 11:30:18;;;;;;;9.67;7.37;;;;;;;9.51;84.73;98058.41;5096405;28;20772;-67
2021/11/18 11:32:55;;;;;;;11.13;8.10;;;;;;;9.42;85.18;98049.03;5101164;28;20767;-66
2021/11/18 11:35:33;;;;;;;12.52;8.27;;;;;;;9.49;85.44;98049.13;5087721;28;20444;-68
2021/11/18 11:38:08;;;;;;;11.23;9.07;;;;;;;9.62;84.84;98048.41;5088775;28;20914;-66
2021/11/18 11:40:47;;;;;;;12.20;9.20;;;;;;;9.57;85.16;98051.63;5105654;28;20407;-67
2021/11/18 11:43:34;;;;;;;11.32;8.13;;;;;;;9.62;84.36;98051.84;5097924;28;20395;-66